sensor_id;sensor_type;location;lat;lon;timestamp;temperature;humidity
45283;DHT22;31023;44.994;1.796;2023-07-29T00:01:32;20.50;80.20
45283;DHT22;31023;44.994;1.796;2023-07-29T00:03:58;20.60;80.20
45283;DHT22;31023;44.994;1.796;2023-07-29T00:06:24;20.60;80.40
45283;DHT22;31023;44.994;1.796;2023-07-29T00:08:49;20.60;80.10
45283;DHT22;31023;44.994;1.796;2023-07-29T00:11:15;20.60;80.00
45283;DHT22;31023;44.994;1.796;2023-07-29T00:13:41;20.60;80.20
45283;DHT22;31023;44.994;1.796;2023-07-29T00:16:06;20.50;80.20
45283;DHT22;31023;44.994;1.796;2023-07-29T00:18:32;20.40;80.70
45283;DHT22;31023;44.994;1.796;2023-07-29T00:20:58;20.50;80.90
45283;DHT22;31023;44.994;1.796;2023-07-29T00:23:23;20.50;80.70
45283;DHT22;31023;44.994;1.796;2023-07-29T00:25:49;20.50;80.90
45283;DHT22;31023;44.994;1.796;2023-07-29T00:28:15;20.60;80.00
45283;DHT22;31023;44.994;1.796;2023-07-29T00:30:41;20.50;81.00
45283;DHT22;31023;44.994;1.796;2023-07-29T00:33:06;20.50;80.70
45283;DHT22;31023;44.994;1.796;2023-07-29T00:35:33;20.40;80.80
45283;DHT22;31023;44.994;1.796;2023-07-29T00:37:58;20.40;81.00
45283;DHT22;31023;44.994;1.796;2023-07-29T00:40:24;20.50;80.70
45283;DHT22;31023;44.994;1.796;2023-07-29T00:42:53;20.60;80.20
45283;DHT22;31023;44.994;1.796;2023-07-29T00:45:18;20.60;80.20
45283;DHT22;31023;44.994;1.796;2023-07-29T00:47:44;20.60;80.50
45283;DHT22;31023;44.994;1.796;2023-07-29T00:50:12;20.50;81.20
45283;DHT22;31023;44.994;1.796;2023-07-29T00:52:38;20.40;81.60
45283;DHT22;31023;44.994;1.796;2023-07-29T00:55:05;20.30;82.30
45283;DHT22;31023;44.994;1.796;2023-07-29T00:57:32;20.20;82.80
45283;DHT22;31023;44.994;1.796;2023-07-29T00:59:59;20.20;82.80
45283;DHT22;31023;44.994;1.796;2023-07-29T01:02:26;20.20;83.00
45283;DHT22;31023;44.994;1.796;2023-07-29T01:04:54;20.20;82.90
45283;DHT22;31023;44.994;1.796;2023-07-29T01:13:10;20.10;83.20
45283;DHT22;31023;44.994;1.796;2023-07-29T01:18:26;20.20;82.80
45283;DHT22;31023;44.994;1.796;2023-07-29T01:20:54;20.10;82.80
45283;DHT22;31023;44.994;1.796;2023-07-29T01:23:24;20.20;82.70
45283;DHT22;31023;44.994;1.796;2023-07-29T01:25:50;20.20;82.80
45283;DHT22;31023;44.994;1.796;2023-07-29T01:28:16;20.10;83.60
45283;DHT22;31023;44.994;1.796;2023-07-29T01:30:43;20.00;84.30
45283;DHT22;31023;44.994;1.796;2023-07-29T01:33:26;19.80;85.10
45283;DHT22;31023;44.994;1.796;2023-07-29T01:35:58;19.70;86.10
45283;DHT22;31023;44.994;1.796;2023-07-29T01:38:33;19.60;87.10
45283;DHT22;31023;44.994;1.796;2023-07-29T01:41:05;19.60;87.50
45283;DHT22;31023;44.994;1.796;2023-07-29T01:43:32;19.50;88.30
45283;DHT22;31023;44.994;1.796;2023-07-29T01:45:58;19.50;88.60
45283;DHT22;31023;44.994;1.796;2023-07-29T01:48:24;19.50;88.50
45283;DHT22;31023;44.994;1.796;2023-07-29T01:50:50;19.50;88.70
45283;DHT22;31023;44.994;1.796;2023-07-29T01:53:15;19.40;89.40
45283;DHT22;31023;44.994;1.796;2023-07-29T01:55:42;19.30;89.60
45283;DHT22;31023;44.994;1.796;2023-07-29T01:58:10;19.50;89.10
45283;DHT22;31023;44.994;1.796;2023-07-29T02:00:35;19.50;88.70
45283;DHT22;31023;44.994;1.796;2023-07-29T02:03:01;19.50;88.90
45283;DHT22;31023;44.994;1.796;2023-07-29T02:05:27;19.40;89.70
45283;DHT22;31023;44.994;1.796;2023-07-29T02:07:52;19.30;90.10
45283;DHT22;31023;44.994;1.796;2023-07-29T02:10:18;19.20;90.30
45283;DHT22;31023;44.994;1.796;2023-07-29T02:12:44;19.30;90.10
45283;DHT22;31023;44.994;1.796;2023-07-29T02:15:09;19.20;90.30
45283;DHT22;31023;44.994;1.796;2023-07-29T02:17:36;19.20;90.40
45283;DHT22;31023;44.994;1.796;2023-07-29T02:20:02;19.10;90.70
45283;DHT22;31023;44.994;1.796;2023-07-29T02:22:29;19.10;91.10
45283;DHT22;31023;44.994;1.796;2023-07-29T02:24:54;19.10;90.90
45283;DHT22;31023;44.994;1.796;2023-07-29T02:27:20;19.10;91.00
45283;DHT22;31023;44.994;1.796;2023-07-29T02:29:46;19.10;90.90
45283;DHT22;31023;44.994;1.796;2023-07-29T02:32:12;19.00;91.10
45283;DHT22;31023;44.994;1.796;2023-07-29T02:34:38;19.10;91.10
45283;DHT22;31023;44.994;1.796;2023-07-29T02:37:03;19.00;91.10
45283;DHT22;31023;44.994;1.796;2023-07-29T02:39:30;18.80;91.80
45283;DHT22;31023;44.994;1.796;2023-07-29T02:41:56;18.90;91.90
45283;DHT22;31023;44.994;1.796;2023-07-29T02:44:23;18.90;92.00
45283;DHT22;31023;44.994;1.796;2023-07-29T02:46:49;18.90;91.90
45283;DHT22;31023;44.994;1.796;2023-07-29T02:49:15;19.00;92.00
45283;DHT22;31023;44.994;1.796;2023-07-29T02:51:41;19.00;91.80
45283;DHT22;31023;44.994;1.796;2023-07-29T02:54:06;18.90;91.70
45283;DHT22;31023;44.994;1.796;2023-07-29T02:56:32;19.00;91.80
45283;DHT22;31023;44.994;1.796;2023-07-29T02:58:58;19.00;91.50
45283;DHT22;31023;44.994;1.796;2023-07-29T03:01:23;19.10;91.50
45283;DHT22;31023;44.994;1.796;2023-07-29T03:03:50;19.10;91.40
45283;DHT22;31023;44.994;1.796;2023-07-29T03:06:16;19.10;91.20
45283;DHT22;31023;44.994;1.796;2023-07-29T03:08:42;19.10;91.40
45283;DHT22;31023;44.994;1.796;2023-07-29T03:11:13;19.00;91.70
45283;DHT22;31023;44.994;1.796;2023-07-29T03:13:39;19.10;91.50
45283;DHT22;31023;44.994;1.796;2023-07-29T03:16:11;19.10;91.60
45283;DHT22;31023;44.994;1.796;2023-07-29T03:18:37;19.00;91.80
45283;DHT22;31023;44.994;1.796;2023-07-29T03:21:03;18.80;92.40
45283;DHT22;31023;44.994;1.796;2023-07-29T03:23:30;18.80;92.30
45283;DHT22;31023;44.994;1.796;2023-07-29T03:25:56;18.90;92.40
45283;DHT22;31023;44.994;1.796;2023-07-29T03:28:28;19.00;92.20
45283;DHT22;31023;44.994;1.796;2023-07-29T03:30:55;18.90;92.10
45283;DHT22;31023;44.994;1.796;2023-07-29T03:33:20;18.90;91.70
45283;DHT22;31023;44.994;1.796;2023-07-29T03:35:46;19.00;91.70
45283;DHT22;31023;44.994;1.796;2023-07-29T03:38:13;19.00;92.20
45283;DHT22;31023;44.994;1.796;2023-07-29T03:40:39;19.10;91.80
45283;DHT22;31023;44.994;1.796;2023-07-29T03:43:05;19.20;91.50
45283;DHT22;31023;44.994;1.796;2023-07-29T03:45:31;19.30;91.00
45283;DHT22;31023;44.994;1.796;2023-07-29T03:47:57;19.40;90.80
45283;DHT22;31023;44.994;1.796;2023-07-29T03:50:23;19.40;90.60
45283;DHT22;31023;44.994;1.796;2023-07-29T03:52:49;19.30;90.90
45283;DHT22;31023;44.994;1.796;2023-07-29T03:55:15;19.10;91.90
45283;DHT22;31023;44.994;1.796;2023-07-29T03:57:41;19.00;92.30
45283;DHT22;31023;44.994;1.796;2023-07-29T04:00:07;18.80;92.60
45283;DHT22;31023;44.994;1.796;2023-07-29T04:02:34;18.80;92.80
45283;DHT22;31023;44.994;1.796;2023-07-29T04:05:03;18.80;92.80
45283;DHT22;31023;44.994;1.796;2023-07-29T04:07:29;18.90;92.70
45283;DHT22;31023;44.994;1.796;2023-07-29T04:09:55;18.80;92.70
45283;DHT22;31023;44.994;1.796;2023-07-29T04:12:22;18.80;93.00
45283;DHT22;31023;44.994;1.796;2023-07-29T04:14:48;18.80;93.00
45283;DHT22;31023;44.994;1.796;2023-07-29T04:17:14;18.90;92.80
45283;DHT22;31023;44.994;1.796;2023-07-29T04:19:39;19.00;92.50
45283;DHT22;31023;44.994;1.796;2023-07-29T04:22:05;19.10;92.50
45283;DHT22;31023;44.994;1.796;2023-07-29T04:24:31;19.10;92.90
45283;DHT22;31023;44.994;1.796;2023-07-29T04:26:57;19.20;93.00
45283;DHT22;31023;44.994;1.796;2023-07-29T04:29:22;19.20;93.20
45283;DHT22;31023;44.994;1.796;2023-07-29T04:31:49;18.80;95.70
45283;DHT22;31023;44.994;1.796;2023-07-29T04:34:15;18.60;97.20
45283;DHT22;31023;44.994;1.796;2023-07-29T04:36:41;18.70;97.80
45283;DHT22;31023;44.994;1.796;2023-07-29T04:39:06;18.60;98.30
45283;DHT22;31023;44.994;1.796;2023-07-29T04:41:33;18.60;98.50
45283;DHT22;31023;44.994;1.796;2023-07-29T04:43:58;18.60;98.70
45283;DHT22;31023;44.994;1.796;2023-07-29T04:46:24;18.30;99.90
45283;DHT22;31023;44.994;1.796;2023-07-29T04:48:50;18.50;99.90
45283;DHT22;31023;44.994;1.796;2023-07-29T04:51:15;18.00;99.90
45283;DHT22;31023;44.994;1.796;2023-07-29T04:53:41;17.80;99.90
45283;DHT22;31023;44.994;1.796;2023-07-29T04:56:07;17.70;99.90
45283;DHT22;31023;44.994;1.796;2023-07-29T04:58:32;17.80;99.90
45283;DHT22;31023;44.994;1.796;2023-07-29T05:01:01;17.60;99.90
45283;DHT22;31023;44.994;1.796;2023-07-29T05:03:27;17.60;99.90
45283;DHT22;31023;44.994;1.796;2023-07-29T05:05:53;17.70;99.90
45283;DHT22;31023;44.994;1.796;2023-07-29T05:08:21;17.80;99.90
45283;DHT22;31023;44.994;1.796;2023-07-29T05:10:50;17.80;99.90
45283;DHT22;31023;44.994;1.796;2023-07-29T05:13:17;17.60;99.90
45283;DHT22;31023;44.994;1.796;2023-07-29T05:15:43;17.70;99.90
45283;DHT22;31023;44.994;1.796;2023-07-29T05:18:08;17.60;99.90
45283;DHT22;31023;44.994;1.796;2023-07-29T05:20:34;17.60;99.90
45283;DHT22;31023;44.994;1.796;2023-07-29T05:23:00;17.70;99.90
45283;DHT22;31023;44.994;1.796;2023-07-29T05:25:26;17.60;99.90
45283;DHT22;31023;44.994;1.796;2023-07-29T05:27:52;17.70;99.90
45283;DHT22;31023;44.994;1.796;2023-07-29T05:30:18;17.70;99.90
45283;DHT22;31023;44.994;1.796;2023-07-29T05:32:44;17.70;99.90
45283;DHT22;31023;44.994;1.796;2023-07-29T05:35:10;17.90;99.90
45283;DHT22;31023;44.994;1.796;2023-07-29T05:37:39;18.10;99.90
45283;DHT22;31023;44.994;1.796;2023-07-29T05:40:08;18.40;99.90
45283;DHT22;31023;44.994;1.796;2023-07-29T05:42:34;18.20;99.90
45283;DHT22;31023;44.994;1.796;2023-07-29T05:45:00;18.20;99.90
45283;DHT22;31023;44.994;1.796;2023-07-29T05:47:26;18.10;99.90
45283;DHT22;31023;44.994;1.796;2023-07-29T05:49:52;18.30;99.90
45283;DHT22;31023;44.994;1.796;2023-07-29T05:52:18;18.30;99.90
45283;DHT22;31023;44.994;1.796;2023-07-29T05:54:44;18.30;99.90
45283;DHT22;31023;44.994;1.796;2023-07-29T05:57:11;18.30;99.90
45283;DHT22;31023;44.994;1.796;2023-07-29T05:59:37;18.20;99.90
45283;DHT22;31023;44.994;1.796;2023-07-29T06:02:03;18.30;99.90
45283;DHT22;31023;44.994;1.796;2023-07-29T06:04:29;18.40;99.90
45283;DHT22;31023;44.994;1.796;2023-07-29T06:06:55;18.50;99.90
45283;DHT22;31023;44.994;1.796;2023-07-29T06:09:22;18.60;99.90
45283;DHT22;31023;44.994;1.796;2023-07-29T06:11:47;18.60;99.90
45283;DHT22;31023;44.994;1.796;2023-07-29T06:14:13;18.60;99.90
45283;DHT22;31023;44.994;1.796;2023-07-29T06:16:39;18.80;99.90
45283;DHT22;31023;44.994;1.796;2023-07-29T06:19:04;18.90;99.90
45283;DHT22;31023;44.994;1.796;2023-07-29T06:21:30;19.20;99.90
45283;DHT22;31023;44.994;1.796;2023-07-29T06:23:56;19.20;99.90
45283;DHT22;31023;44.994;1.796;2023-07-29T06:26:22;19.10;99.90
45283;DHT22;31023;44.994;1.796;2023-07-29T06:28:48;19.40;99.90
45283;DHT22;31023;44.994;1.796;2023-07-29T06:31:13;19.70;99.90
45283;DHT22;31023;44.994;1.796;2023-07-29T06:33:39;20.90;99.90
45283;DHT22;31023;44.994;1.796;2023-07-29T06:36:05;23.10;93.00
45283;DHT22;31023;44.994;1.796;2023-07-29T06:38:31;23.20;88.80
45283;DHT22;31023;44.994;1.796;2023-07-29T06:40:56;21.90;91.90
45283;DHT22;31023;44.994;1.796;2023-07-29T06:43:22;20.60;96.80
45283;DHT22;31023;44.994;1.796;2023-07-29T06:45:48;19.80;99.20
45283;DHT22;31023;44.994;1.796;2023-07-29T06:48:14;19.60;99.90
45283;DHT22;31023;44.994;1.796;2023-07-29T06:50:40;19.80;99.90
45283;DHT22;31023;44.994;1.796;2023-07-29T06:53:06;20.00;99.90
45283;DHT22;31023;44.994;1.796;2023-07-29T06:55:32;20.30;99.90
45283;DHT22;31023;44.994;1.796;2023-07-29T06:57:57;20.60;99.60
45283;DHT22;31023;44.994;1.796;2023-07-29T07:00:23;21.20;97.80
45283;DHT22;31023;44.994;1.796;2023-07-29T07:02:49;22.20;94.60
45283;DHT22;31023;44.994;1.796;2023-07-29T07:05:15;21.10;96.70
45283;DHT22;31023;44.994;1.796;2023-07-29T07:07:40;20.90;97.00
45283;DHT22;31023;44.994;1.796;2023-07-29T07:10:06;20.80;97.60
45283;DHT22;31023;44.994;1.796;2023-07-29T07:12:32;21.20;97.50
45283;DHT22;31023;44.994;1.796;2023-07-29T07:14:58;22.80;92.50
45283;DHT22;31023;44.994;1.796;2023-07-29T07:17:23;24.80;82.90
45283;DHT22;31023;44.994;1.796;2023-07-29T07:19:49;24.30;82.90
45283;DHT22;31023;44.994;1.796;2023-07-29T07:22:16;26.70;76.70
45283;DHT22;31023;44.994;1.796;2023-07-29T07:24:41;28.20;72.30
45283;DHT22;31023;44.994;1.796;2023-07-29T07:27:07;28.30;69.60
45283;DHT22;31023;44.994;1.796;2023-07-29T07:29:33;29.50;66.60
45283;DHT22;31023;44.994;1.796;2023-07-29T07:31:58;30.70;64.40
45283;DHT22;31023;44.994;1.796;2023-07-29T07:34:24;27.80;63.30
45283;DHT22;31023;44.994;1.796;2023-07-29T07:36:50;25.90;74.10
45283;DHT22;31023;44.994;1.796;2023-07-29T07:39:16;26.70;73.70
45283;DHT22;31023;44.994;1.796;2023-07-29T07:41:42;29.40;66.60
45283;DHT22;31023;44.994;1.796;2023-07-29T07:44:08;26.50;71.30
45283;DHT22;31023;44.994;1.796;2023-07-29T07:46:34;24.60;77.80
45283;DHT22;31023;44.994;1.796;2023-07-29T07:48:59;24.30;78.80
45283;DHT22;31023;44.994;1.796;2023-07-29T07:51:25;24.30;80.20
45283;DHT22;31023;44.994;1.796;2023-07-29T07:53:51;28.40;70.50
45283;DHT22;31023;44.994;1.796;2023-07-29T07:56:17;28.70;64.90
45283;DHT22;31023;44.994;1.796;2023-07-29T07:58:42;29.30;63.40
45283;DHT22;31023;44.994;1.796;2023-07-29T08:01:09;28.90;68.30
45283;DHT22;31023;44.994;1.796;2023-07-29T08:03:35;27.90;68.90
45283;DHT22;31023;44.994;1.796;2023-07-29T08:06:01;27.90;67.60
45283;DHT22;31023;44.994;1.796;2023-07-29T08:08:27;26.70;70.20
45283;DHT22;31023;44.994;1.796;2023-07-29T08:10:54;28.10;66.00
45283;DHT22;31023;44.994;1.796;2023-07-29T08:13:21;27.90;65.90
45283;DHT22;31023;44.994;1.796;2023-07-29T08:15:48;32.30;56.90
45283;DHT22;31023;44.994;1.796;2023-07-29T08:18:14;29.70;60.50
45283;DHT22;31023;44.994;1.796;2023-07-29T08:20:40;28.80;65.70
45283;DHT22;31023;44.994;1.796;2023-07-29T08:23:05;30.20;60.10
45283;DHT22;31023;44.994;1.796;2023-07-29T08:25:31;30.00;63.70
45283;DHT22;31023;44.994;1.796;2023-07-29T08:27:57;28.60;66.80
45283;DHT22;31023;44.994;1.796;2023-07-29T08:30:22;29.10;67.30
45283;DHT22;31023;44.994;1.796;2023-07-29T08:32:48;27.70;66.90
45283;DHT22;31023;44.994;1.796;2023-07-29T08:35:14;27.20;69.90
45283;DHT22;31023;44.994;1.796;2023-07-29T08:37:39;30.80;64.30
45283;DHT22;31023;44.994;1.796;2023-07-29T08:40:06;29.80;62.10
45283;DHT22;31023;44.994;1.796;2023-07-29T08:42:33;31.60;58.90
45283;DHT22;31023;44.994;1.796;2023-07-29T08:45:07;33.30;57.00
45283;DHT22;31023;44.994;1.796;2023-07-29T08:47:37;35.50;52.50
45283;DHT22;31023;44.994;1.796;2023-07-29T08:50:03;36.80;51.90
45283;DHT22;31023;44.994;1.796;2023-07-29T08:52:29;36.40;53.20
45283;DHT22;31023;44.994;1.796;2023-07-29T08:54:58;35.40;55.50
45283;DHT22;31023;44.994;1.796;2023-07-29T08:57:24;36.60;51.90
45283;DHT22;31023;44.994;1.796;2023-07-29T08:59:51;33.10;55.10
45283;DHT22;31023;44.994;1.796;2023-07-29T09:02:18;30.50;61.70
45283;DHT22;31023;44.994;1.796;2023-07-29T09:04:43;29.00;64.30
45283;DHT22;31023;44.994;1.796;2023-07-29T09:07:10;28.30;66.60
45283;DHT22;31023;44.994;1.796;2023-07-29T09:09:35;28.00;67.20
45283;DHT22;31023;44.994;1.796;2023-07-29T09:12:01;28.40;65.70
45283;DHT22;31023;44.994;1.796;2023-07-29T09:14:27;28.10;66.40
45283;DHT22;31023;44.994;1.796;2023-07-29T09:16:54;30.60;64.80
45283;DHT22;31023;44.994;1.796;2023-07-29T09:19:25;30.80;59.20
45283;DHT22;31023;44.994;1.796;2023-07-29T09:21:52;32.20;55.60
45283;DHT22;31023;44.994;1.796;2023-07-29T09:24:17;30.40;57.20
45283;DHT22;31023;44.994;1.796;2023-07-29T09:26:52;29.50;60.50
45283;DHT22;31023;44.994;1.796;2023-07-29T09:29:23;31.10;59.60
45283;DHT22;31023;44.994;1.796;2023-07-29T09:31:49;31.00;55.70
45283;DHT22;31023;44.994;1.796;2023-07-29T09:34:15;30.30;58.70
45283;DHT22;31023;44.994;1.796;2023-07-29T09:36:43;34.60;53.20
45283;DHT22;31023;44.994;1.796;2023-07-29T09:39:11;34.70;52.10
45283;DHT22;31023;44.994;1.796;2023-07-29T09:41:38;34.60;52.40
45283;DHT22;31023;44.994;1.796;2023-07-29T09:44:04;33.20;52.40
45283;DHT22;31023;44.994;1.796;2023-07-29T09:46:37;31.50;55.00
45283;DHT22;31023;44.994;1.796;2023-07-29T09:49:04;33.60;56.20
45283;DHT22;31023;44.994;1.796;2023-07-29T09:51:31;35.20;51.80
45283;DHT22;31023;44.994;1.796;2023-07-29T09:53:57;36.20;51.00
45283;DHT22;31023;44.994;1.796;2023-07-29T09:56:27;36.50;52.40
45283;DHT22;31023;44.994;1.796;2023-07-29T09:58:55;37.00;48.70
45283;DHT22;31023;44.994;1.796;2023-07-29T10:01:21;36.50;47.10
45283;DHT22;31023;44.994;1.796;2023-07-29T10:03:47;37.30;47.60
45283;DHT22;31023;44.994;1.796;2023-07-29T10:06:14;38.20;47.20
45283;DHT22;31023;44.994;1.796;2023-07-29T10:08:42;37.60;47.00
45283;DHT22;31023;44.994;1.796;2023-07-29T10:11:09;36.90;46.30
45283;DHT22;31023;44.994;1.796;2023-07-29T10:13:36;34.30;51.80
45283;DHT22;31023;44.994;1.796;2023-07-29T10:16:03;34.00;52.50
45283;DHT22;31023;44.994;1.796;2023-07-29T10:18:29;34.80;50.80
45283;DHT22;31023;44.994;1.796;2023-07-29T10:20:57;36.70;49.20
45283;DHT22;31023;44.994;1.796;2023-07-29T10:23:25;36.40;45.80
45283;DHT22;31023;44.994;1.796;2023-07-29T10:26:02;34.80;49.50
45283;DHT22;31023;44.994;1.796;2023-07-29T10:28:31;34.80;51.90
45283;DHT22;31023;44.994;1.796;2023-07-29T10:30:58;35.10;51.10
45283;DHT22;31023;44.994;1.796;2023-07-29T10:33:25;35.40;51.10
45283;DHT22;31023;44.994;1.796;2023-07-29T10:35:52;35.20;49.20
45283;DHT22;31023;44.994;1.796;2023-07-29T10:38:21;33.90;49.80
45283;DHT22;31023;44.994;1.796;2023-07-29T10:40:56;32.50;49.60
45283;DHT22;31023;44.994;1.796;2023-07-29T10:43:35;33.70;51.60
45283;DHT22;31023;44.994;1.796;2023-07-29T10:46:21;34.20;50.80
45283;DHT22;31023;44.994;1.796;2023-07-29T10:51:27;31.80;54.20
45283;DHT22;31023;44.994;1.796;2023-07-29T10:54:02;31.10;57.60
45283;DHT22;31023;44.994;1.796;2023-07-29T10:56:36;31.60;56.60
45283;DHT22;31023;44.994;1.796;2023-07-29T11:01:39;30.70;56.40
45283;DHT22;31023;44.994;1.796;2023-07-29T11:12:42;30.90;53.90
45283;DHT22;31023;44.994;1.796;2023-07-29T11:17:41;31.10;56.10
45283;DHT22;31023;44.994;1.796;2023-07-29T11:20:08;30.50;56.20
45283;DHT22;31023;44.994;1.796;2023-07-29T11:22:34;30.20;58.50
45283;DHT22;31023;44.994;1.796;2023-07-29T11:25:00;31.00;58.00
45283;DHT22;31023;44.994;1.796;2023-07-29T11:27:26;30.70;56.90
45283;DHT22;31023;44.994;1.796;2023-07-29T11:30:02;30.50;56.20
45283;DHT22;31023;44.994;1.796;2023-07-29T11:32:30;30.80;57.80
45283;DHT22;31023;44.994;1.796;2023-07-29T11:34:57;30.90;56.80
45283;DHT22;31023;44.994;1.796;2023-07-29T11:37:22;30.20;57.40
45283;DHT22;31023;44.994;1.796;2023-07-29T11:39:48;30.50;54.80
45283;DHT22;31023;44.994;1.796;2023-07-29T11:42:14;30.80;54.80
45283;DHT22;31023;44.994;1.796;2023-07-29T11:44:40;30.90;54.90
45283;DHT22;31023;44.994;1.796;2023-07-29T11:47:06;31.00;55.80
45283;DHT22;31023;44.994;1.796;2023-07-29T11:49:34;31.10;56.10
45283;DHT22;31023;44.994;1.796;2023-07-29T11:52:00;31.60;57.20
45283;DHT22;31023;44.994;1.796;2023-07-29T11:54:26;31.30;52.80
45283;DHT22;31023;44.994;1.796;2023-07-29T11:56:52;31.00;54.40
45283;DHT22;31023;44.994;1.796;2023-07-29T11:59:18;30.90;52.90
45283;DHT22;31023;44.994;1.796;2023-07-29T12:01:45;30.90;53.30
45283;DHT22;31023;44.994;1.796;2023-07-29T12:04:10;31.00;53.00
45283;DHT22;31023;44.994;1.796;2023-07-29T12:06:37;30.50;54.70
45283;DHT22;31023;44.994;1.796;2023-07-29T12:09:03;30.60;55.10
45283;DHT22;31023;44.994;1.796;2023-07-29T12:11:30;30.70;53.30
45283;DHT22;31023;44.994;1.796;2023-07-29T12:13:55;30.80;53.50
45283;DHT22;31023;44.994;1.796;2023-07-29T12:16:21;31.20;54.90
45283;DHT22;31023;44.994;1.796;2023-07-29T12:18:49;31.00;52.80
45283;DHT22;31023;44.994;1.796;2023-07-29T12:21:15;30.60;54.60
45283;DHT22;31023;44.994;1.796;2023-07-29T12:23:41;30.40;56.10
45283;DHT22;31023;44.994;1.796;2023-07-29T12:26:06;30.10;55.10
45283;DHT22;31023;44.994;1.796;2023-07-29T12:28:32;29.80;55.40
45283;DHT22;31023;44.994;1.796;2023-07-29T12:30:58;30.10;56.50
45283;DHT22;31023;44.994;1.796;2023-07-29T12:33:36;30.40;56.60
45283;DHT22;31023;44.994;1.796;2023-07-29T12:36:03;30.80;55.40
45283;DHT22;31023;44.994;1.796;2023-07-29T12:38:29;30.20;55.00
45283;DHT22;31023;44.994;1.796;2023-07-29T12:40:55;30.20;56.30
45283;DHT22;31023;44.994;1.796;2023-07-29T12:43:21;30.10;55.40
45283;DHT22;31023;44.994;1.796;2023-07-29T12:45:50;30.50;55.20
45283;DHT22;31023;44.994;1.796;2023-07-29T12:48:16;30.80;55.10
45283;DHT22;31023;44.994;1.796;2023-07-29T12:50:42;30.70;53.50
45283;DHT22;31023;44.994;1.796;2023-07-29T12:53:09;30.60;52.80
45283;DHT22;31023;44.994;1.796;2023-07-29T12:55:37;30.30;53.80
45283;DHT22;31023;44.994;1.796;2023-07-29T12:58:04;30.10;58.40
45283;DHT22;31023;44.994;1.796;2023-07-29T13:00:30;30.50;56.70
45283;DHT22;31023;44.994;1.796;2023-07-29T13:02:56;31.00;55.10
45283;DHT22;31023;44.994;1.796;2023-07-29T13:05:22;30.90;55.60
45283;DHT22;31023;44.994;1.796;2023-07-29T13:07:47;30.80;55.80
45283;DHT22;31023;44.994;1.796;2023-07-29T13:10:14;29.80;55.60
45283;DHT22;31023;44.994;1.796;2023-07-29T13:12:40;29.20;55.80
45283;DHT22;31023;44.994;1.796;2023-07-29T13:15:06;29.10;58.90
45283;DHT22;31023;44.994;1.796;2023-07-29T13:17:32;28.80;59.20
45283;DHT22;31023;44.994;1.796;2023-07-29T13:19:57;28.50;57.60
45283;DHT22;31023;44.994;1.796;2023-07-29T13:22:23;28.60;58.30
45283;DHT22;31023;44.994;1.796;2023-07-29T13:24:49;28.30;57.90
45283;DHT22;31023;44.994;1.796;2023-07-29T13:27:14;28.80;60.70
45283;DHT22;31023;44.994;1.796;2023-07-29T13:29:40;28.70;56.70
45283;DHT22;31023;44.994;1.796;2023-07-29T13:32:06;29.00;59.80
45283;DHT22;31023;44.994;1.796;2023-07-29T13:34:32;29.20;58.60
45283;DHT22;31023;44.994;1.796;2023-07-29T13:36:59;29.40;57.60
45283;DHT22;31023;44.994;1.796;2023-07-29T13:39:25;29.60;57.70
45283;DHT22;31023;44.994;1.796;2023-07-29T13:41:51;29.30;57.20
45283;DHT22;31023;44.994;1.796;2023-07-29T13:44:17;28.90;60.00
45283;DHT22;31023;44.994;1.796;2023-07-29T13:46:42;28.60;60.00
45283;DHT22;31023;44.994;1.796;2023-07-29T13:49:08;28.30;60.80
45283;DHT22;31023;44.994;1.796;2023-07-29T13:51:33;28.40;61.50
45283;DHT22;31023;44.994;1.796;2023-07-29T13:53:59;28.20;59.40
45283;DHT22;31023;44.994;1.796;2023-07-29T13:56:25;28.20;60.10
45283;DHT22;31023;44.994;1.796;2023-07-29T13:58:51;28.40;62.30
45283;DHT22;31023;44.994;1.796;2023-07-29T14:01:16;28.50;62.90
45283;DHT22;31023;44.994;1.796;2023-07-29T14:03:42;28.80;60.50
45283;DHT22;31023;44.994;1.796;2023-07-29T14:06:08;29.30;61.50
45283;DHT22;31023;44.994;1.796;2023-07-29T14:08:33;29.30;60.50
45283;DHT22;31023;44.994;1.796;2023-07-29T14:11:01;29.40;59.50
45283;DHT22;31023;44.994;1.796;2023-07-29T14:13:27;28.70;55.90
45283;DHT22;31023;44.994;1.796;2023-07-29T14:15:52;28.50;58.80
45283;DHT22;31023;44.994;1.796;2023-07-29T14:18:18;29.00;58.60
45283;DHT22;31023;44.994;1.796;2023-07-29T14:20:44;29.10;60.00
45283;DHT22;31023;44.994;1.796;2023-07-29T14:23:13;29.20;60.90
45283;DHT22;31023;44.994;1.796;2023-07-29T14:25:40;29.20;59.50
45283;DHT22;31023;44.994;1.796;2023-07-29T14:28:06;28.90;59.00
45283;DHT22;31023;44.994;1.796;2023-07-29T14:30:32;29.00;60.70
45283;DHT22;31023;44.994;1.796;2023-07-29T14:32:58;28.80;58.40
45283;DHT22;31023;44.994;1.796;2023-07-29T14:35:24;28.30;60.30
45283;DHT22;31023;44.994;1.796;2023-07-29T14:37:49;28.10;59.70
45283;DHT22;31023;44.994;1.796;2023-07-29T14:40:15;28.30;59.70
45283;DHT22;31023;44.994;1.796;2023-07-29T14:42:41;28.50;59.90
45283;DHT22;31023;44.994;1.796;2023-07-29T14:45:07;28.90;58.90
45283;DHT22;31023;44.994;1.796;2023-07-29T14:47:33;29.00;57.30
45283;DHT22;31023;44.994;1.796;2023-07-29T14:50:00;29.00;58.10
45283;DHT22;31023;44.994;1.796;2023-07-29T14:52:26;28.50;56.70
45283;DHT22;31023;44.994;1.796;2023-07-29T14:54:52;28.20;58.30
45283;DHT22;31023;44.994;1.796;2023-07-29T14:57:17;27.90;58.90
45283;DHT22;31023;44.994;1.796;2023-07-29T14:59:43;27.90;60.50
45283;DHT22;31023;44.994;1.796;2023-07-29T15:02:08;27.60;60.80
45283;DHT22;31023;44.994;1.796;2023-07-29T15:04:34;27.70;61.00
45283;DHT22;31023;44.994;1.796;2023-07-29T15:07:01;27.80;60.60
45283;DHT22;31023;44.994;1.796;2023-07-29T15:09:27;27.80;59.70
45283;DHT22;31023;44.994;1.796;2023-07-29T15:11:52;27.60;59.70
45283;DHT22;31023;44.994;1.796;2023-07-29T15:14:18;27.60;59.60
45283;DHT22;31023;44.994;1.796;2023-07-29T15:16:44;27.80;60.90
45283;DHT22;31023;44.994;1.796;2023-07-29T15:19:10;27.70;60.00
45283;DHT22;31023;44.994;1.796;2023-07-29T15:21:35;27.40;60.40
45283;DHT22;31023;44.994;1.796;2023-07-29T15:24:01;27.10;60.40
45283;DHT22;31023;44.994;1.796;2023-07-29T15:26:27;27.20;60.90
45283;DHT22;31023;44.994;1.796;2023-07-29T15:28:53;27.30;61.10
45283;DHT22;31023;44.994;1.796;2023-07-29T15:31:19;27.40;61.00
45283;DHT22;31023;44.994;1.796;2023-07-29T15:33:44;27.20;62.30
45283;DHT22;31023;44.994;1.796;2023-07-29T15:36:10;27.40;59.70
45283;DHT22;31023;44.994;1.796;2023-07-29T15:38:36;27.70;60.10
45283;DHT22;31023;44.994;1.796;2023-07-29T15:41:02;27.80;59.50
45283;DHT22;31023;44.994;1.796;2023-07-29T15:43:27;27.50;60.00
45283;DHT22;31023;44.994;1.796;2023-07-29T15:45:53;27.40;60.50
45283;DHT22;31023;44.994;1.796;2023-07-29T15:48:19;27.20;60.70
45283;DHT22;31023;44.994;1.796;2023-07-29T15:50:45;27.10;60.80